createdAt,value
2022-10-17T00:08:58.105Z,28.30
2022-10-17T00:24:01.369Z,21.90
2022-10-17T00:39:04.534Z,25.20
2022-10-17T00:54:09.968Z,24.30
2022-10-17T01:09:13.368Z,37.90
2022-10-17T01:24:47.457Z,24.50
2022-10-17T01:40:10.821Z,26.20
2022-10-17T01:55:20.923Z,22.30
2022-10-17T02:10:36.320Z,19.20
2022-10-17T02:25:48.601Z,22.90
2022-10-17T02:40:53.288Z,35.50
2022-10-17T02:56:05.384Z,36.60
2022-10-17T03:11:09.045Z,40.40
2022-10-17T03:26:12.161Z,35.70
2022-10-17T03:41:15.594Z,27.50
2022-10-17T03:56:24.859Z,39.70
2022-10-17T04:11:42.562Z,48.80
2022-10-17T04:26:46.284Z,34.30
2022-10-17T04:41:50.097Z,34.00
2022-10-17T04:56:53.961Z,29.20
2022-10-17T05:11:57.997Z,34.40
2022-10-17T05:27:01.787Z,84.40
2022-10-17T05:42:05.115Z,49.70
2022-10-17T05:57:09.416Z,45.60
2022-10-17T06:12:13.511Z,56.00
2022-10-17T06:27:18.191Z,54.60
2022-10-17T06:42:22.110Z,38.00
2022-10-17T06:57:45.961Z,57.00
2022-10-17T07:13:08.739Z,74.70
2022-10-17T07:28:15.344Z,56.40
2022-10-17T07:43:18.807Z,51.50
2022-10-17T07:58:22.598Z,46.90
2022-10-17T08:13:25.948Z,35.00
2022-10-17T08:28:29.690Z,13.90
2022-10-17T08:44:17.546Z,14.00
2022-10-17T08:59:26.969Z,12.90
2022-10-17T09:14:45.081Z,11.80
2022-10-17T09:29:51.340Z,11.60
2022-10-17T09:45:26.387Z,11.40
2022-10-17T10:00:31.034Z,14.10
2022-10-17T10:15:39.619Z,13.80
2022-10-17T10:45:52.320Z,18.90
2022-10-17T11:09:57.803Z,19.30
2022-10-17T11:25:08.664Z,14.00
2022-10-17T11:40:21.922Z,12.50
2022-10-17T11:55:30.123Z,14.90
2022-10-17T12:10:43.146Z,15.20
2022-10-17T12:25:59.634Z,15.40
2022-10-17T12:41:08.331Z,13.30
2022-10-17T12:56:46.190Z,14.80
2022-10-17T13:11:50.825Z,14.90
2022-10-17T13:26:54.637Z,13.50
2022-10-17T13:41:58.665Z,13.20
2022-10-17T13:57:05.039Z,12.90
2022-10-17T14:12:16.984Z,18.40
2022-10-17T14:27:35.541Z,15.10
2022-10-17T14:42:40.768Z,18.30
2022-10-17T14:57:46.263Z,16.50
2022-10-17T15:12:58.898Z,26.00
2022-10-17T15:28:12.195Z,18.60
2022-10-17T15:43:19.678Z,21.70
2022-10-17T15:58:23.193Z,24.90
2022-10-17T16:13:26.216Z,28.70
2022-10-17T16:28:29.885Z,28.30
2022-10-17T16:43:36.707Z,27.10
2022-10-17T16:58:41.116Z,26.20
2022-10-17T17:13:44.540Z,31.10
2022-10-17T17:28:49.883Z,28.20
2022-10-17T17:43:53.810Z,28.30
2022-10-17T17:59:00.303Z,25.80
2022-10-17T18:14:07.364Z,27.40
2022-10-17T18:29:13.509Z,26.80
2022-10-17T18:44:17.745Z,26.60
2022-10-17T18:59:25.030Z,27.10
2022-10-17T19:14:30.701Z,25.00
2022-10-17T19:29:34.696Z,25.20
2022-10-17T19:44:38.312Z,23.30
2022-10-17T19:59:41.323Z,23.80
2022-10-17T20:14:44.635Z,23.00
2022-10-17T20:29:48.044Z,21.90
2022-10-17T20:44:51.174Z,21.80
2022-10-17T20:59:54.197Z,21.30
2022-10-17T21:14:57.934Z,20.40
2022-10-17T21:30:01.267Z,22.20
2022-10-17T21:45:10.605Z,20.70
2022-10-17T22:00:19.488Z,24.50
2022-10-17T22:15:22.817Z,26.60
2022-10-17T22:30:26.086Z,22.40
2022-10-17T22:45:29.184Z,25.70
2022-10-17T23:00:32.119Z,24.30
2022-10-17T23:15:35.504Z,23.60
2022-10-17T23:30:39.463Z,26.00
2022-10-17T23:45:42.689Z,22.90
